Home   Weather   Germany   Pforzheim   Past weeks
Flag for Germany

Past Weather in Pforzheim, Baden-Württemberg, Germany — Yesterday and Last 2 Weeks

Currently: 68 °F. Clear. (Weather station: Stuttgart-Echterdingen, Germany). See more current weather

Past Weather in Pforzheim — Graph

°F

Pforzheim Temperature Yesterday

Maximum temperature yesterday: 77 °F (at 1:50 pm)
Minimum temperature yesterday: 61 °F (at 11:50 pm)
Average temperature yesterday: 70 °F

High & Low Weather Summary for the Past Weeks

 TemperatureHumidityPressure
High88 °F (Jul 9, 4:20 pm)100% (Jul 11, 1:50 am)30.21 "Hg (Jul 11, 1:50 am)
Low52 °F (Jul 5, 3:20 am)38% (Jul 15, 3:50 pm)29.71 "Hg (Jul 6, 10:20 am)
Average67 °F73%29.96 "Hg
* Reported Jul 2 9:20 pm — Jul 17 9:50 pm, Pforzheim. Weather by CustomWeather, © 2024

Note: Actual official high and low records may vary slightly from our data, if they occured in-between our weather recording intervals... More about our weather records

Pforzheim Weather History for the Previous 24 Hours

Scroll right to see more
 ConditionsComfort  
Time TempWeatherWind HumidityBarometerVisibility
9:50 pm
Wed, Jul 17
68 °FClear.5 mph60%30.21 "Hg10 mi
9:20 pm70 °FClear.5 mph57%30.18 "Hg10 mi
8:50 pm72 °FSunny.5 mph53%30.18 "Hg10 mi
8:20 pm73 °FPassing clouds.5 mph50%30.18 "HgN/A
7:50 pm73 °FPassing clouds.7 mph50%30.18 "HgN/A
7:20 pm75 °FPassing clouds.6 mph50%30.18 "HgN/A
6:20 pm77 °FPassing clouds.7 mph44%30.18 "HgN/A
5:50 pm73 °FPassing clouds.3 mph50%30.18 "HgN/A
5:20 pm73 °FPassing clouds.7 mph50%30.18 "HgN/A
4:50 pm75 °FSunny.2 mph50%30.18 "Hg10 mi
4:20 pm75 °FSunny.3 mph47%30.18 "Hg10 mi
3:50 pm75 °FPassing clouds.6 mph47%30.18 "HgN/A
3:20 pm73 °FScattered clouds.7 mph53%30.18 "HgN/A
2:50 pm73 °FPartly sunny.7 mph53%30.18 "HgN/A
2:20 pm73 °FPassing clouds.6 mph50%30.18 "HgN/A
1:50 pm73 °FPartly sunny.9 mph53%30.18 "HgN/A
1:20 pm75 °FSunny.6 mph47%30.18 "Hg10 mi
12:50 pm73 °FSunny.2 mph50%30.18 "Hg10 mi
12:20 pm73 °FPassing clouds.3 mph50%30.18 "HgN/A
11:50 am73 °FPassing clouds.3 mph50%30.18 "HgN/A
11:20 am72 °FScattered clouds.3 mph53%30.18 "HgN/A
10:20 am72 °FPassing clouds.3 mph57%30.18 "HgN/A
9:50 am68 °FPassing clouds.2 mph64%30.18 "HgN/A
9:20 am68 °FSunny.3 mph64%30.18 "Hg10 mi
8:50 am66 °FSunny.2 mph68%30.18 "Hg10 mi
8:20 am66 °FPassing clouds.3 mph73%30.18 "HgN/A
7:50 am61 °FSunny.No wind88%30.18 "Hg10 mi
7:20 am59 °FSunny.1 mph94%30.18 "Hg10 mi
6:50 am59 °FSunny.1 mph88%30.15 "Hg10 mi
6:20 am61 °FSunny.1 mph83%30.15 "Hg10 mi
5:50 am59 °FSunny.3 mph88%30.15 "Hg10 mi
5:20 am59 °FClear.No wind88%30.12 "Hg10 mi
4:50 am59 °FClear.No wind88%30.12 "Hg10 mi
4:20 am57 °FClear.1 mph94%30.12 "Hg10 mi
3:50 am59 °FClear.2 mph82%30.12 "Hg10 mi
3:20 am59 °FClear.3 mph82%30.12 "Hg10 mi
2:50 am59 °FClear.2 mph82%30.12 "Hg10 mi
2:20 am59 °FClear.1 mph88%30.12 "Hg10 mi
1:50 am61 °FClear.2 mph77%30.12 "Hg10 mi
1:20 am61 °FClear.5 mph83%30.09 "Hg10 mi
12:50 am61 °FClear.3 mph77%30.09 "Hg10 mi
12:20 am61 °FClear.2 mph77%30.09 "Hg10 mi
11:50 pm
Tue, Jul 16
61 °FClear.6 mph83%30.09 "Hg10 mi
11:20 pm63 °FPassing clouds.3 mph77%30.09 "HgN/A
Weather by CustomWeather, © 2024

See weather overview